Time;durP1;ratioP1;P1;durP2;ratioP2;P2;SDS_P1;SDS_P2;PMS_P1;PMS_P2;Temp;Humidity;BMP_temperature;BMP_pressure;BME280_temperature;BME280_humidity;BME280_pressure;Samples;Min_cycle;Max_cycle;Signal;HPM_P1;HPM_P2
2022/04/23 00:01:12;;;;;;;;;23.75;21.50;;;;;-146.03;100.00;60875.16;6242602;22;47094;-86
2022/04/23 00:03:38;;;;;;;;;21.50;21.25;;;;;-146.03;100.00;60875.16;6241752;22;45625;-86
2022/04/23 00:06:03;;;;;;;;;21.50;20.50;;;;;-146.03;100.00;60875.16;6242812;22;45311;-86
2022/04/23 00:08:29;;;;;;;;;20.75;20.00;;;;;-146.03;100.00;60875.16;6243119;22;45371;-85
2022/04/23 00:10:54;;;;;;;;;21.00;21.00;;;;;-146.03;100.00;60875.16;6244232;22;46076;-85
2022/04/23 00:13:20;;;;;;;;;20.75;19.00;;;;;-146.03;100.00;60875.16;6272476;22;45325;-86
2022/04/23 00:15:45;;;;;;;;;21.50;20.25;;;;;-146.03;100.00;60875.16;6270181;22;45614;-85
2022/04/23 00:18:11;;;;;;;;;22.25;22.25;;;;;-146.03;100.00;60875.16;6243017;22;45341;-86
2022/04/23 00:20:37;;;;;;;;;22.00;21.00;;;;;-146.03;100.00;60875.16;6272114;22;45869;-85
2022/04/23 00:23:04;;;;;;;;;10.00;8.75;;;;;-146.03;100.00;60875.16;6271969;22;45466;-85
2022/04/23 00:25:31;;;;;;;;;19.25;19.25;;;;;-146.03;100.00;60875.16;6244241;22;45393;-85
2022/04/23 00:27:57;;;;;;;;;22.00;21.75;;;;;-146.03;100.00;60875.16;6271508;22;45326;-85
2022/04/23 00:30:22;;;;;;;;;20.75;19.50;;;;;-146.03;100.00;60875.16;6243680;22;46814;-86
2022/04/23 00:32:48;;;;;;;;;25.25;23.75;;;;;-146.03;100.00;60875.16;6272213;22;45289;-86
2022/04/23 00:35:14;;;;;;;;;22.00;18.25;;;;;-146.03;100.00;60875.16;6272456;22;45188;-85
2022/04/23 00:37:41;;;;;;;;;20.25;19.75;;;;;-146.03;100.00;60875.16;6272608;22;45380;-86
2022/04/23 00:40:07;;;;;;;;;25.50;23.25;;;;;-146.03;100.00;60875.16;6273451;22;46000;-85
2022/04/23 00:42:48;;;;;;;;;21.75;21.25;;;;;-146.03;100.00;60875.16;6245684;22;45796;-86
2022/04/23 00:45:14;;;;;;;;;22.25;21.75;;;;;-146.03;100.00;60875.16;6273229;22;45254;-86
2022/04/23 00:47:39;;;;;;;;;22.00;20.25;;;;;-146.03;100.00;60875.16;6245790;22;45483;-85
2022/04/23 00:50:05;;;;;;;;;23.25;23.25;;;;;-146.03;100.00;60875.16;6273369;22;45991;-85
2022/04/23 00:52:32;;;;;;;;;22.50;21.50;;;;;-146.03;100.00;60875.16;6273704;22;45621;-87
2022/04/23 00:54:58;;;;;;;;;23.75;21.00;;;;;-146.03;100.00;60875.16;6273570;22;45254;-86
2022/04/23 00:57:24;;;;;;;;;20.25;20.25;;;;;-146.03;100.00;60875.16;6273716;22;45340;-86
2022/04/23 00:59:50;;;;;;;;;26.00;25.50;;;;;-146.03;100.00;60875.16;6273044;22;45724;-86
2022/04/23 01:02:15;;;;;;;;;21.00;19.75;;;;;-146.03;100.00;60875.16;6273594;22;45350;-85
2022/04/23 01:04:41;;;;;;;;;24.00;22.75;;;;;-146.03;100.00;60875.16;6246342;22;45449;-86
2022/04/23 01:07:07;;;;;;;;;25.50;23.75;;;;;-146.03;100.00;60875.16;6273420;22;45265;-86
2022/04/23 01:09:33;;;;;;;;;21.00;21.00;;;;;-146.03;100.00;60875.16;6273353;22;45253;-85
2022/04/23 01:11:59;;;;;;;;;24.00;24.00;;;;;-146.03;100.00;60875.16;6273641;22;45301;-86
2022/04/23 01:14:25;;;;;;;;;24.00;23.00;;;;;-146.03;100.00;60875.16;6273179;22;45581;-85
2022/04/23 01:16:51;;;;;;;;;26.00;25.00;;;;;-146.03;100.00;60875.16;6245919;22;45352;-86
2022/04/23 01:19:17;;;;;;;;;28.25;26.25;;;;;-146.03;100.00;60875.16;6273329;22;45606;-86
2022/04/23 01:21:42;;;;;;;;;26.75;25.50;;;;;-146.03;100.00;60875.16;6273420;22;45359;-86
2022/04/23 01:24:09;;;;;;;;;27.00;25.50;;;;;-146.03;100.00;60875.16;6245515;22;45305;-86
2022/04/23 01:26:34;;;;;;;;;24.25;24.00;;;;;-146.03;100.00;60875.16;6245729;22;45325;-86
2022/04/23 01:29:00;;;;;;;;;23.25;23.25;;;;;-146.03;100.00;60875.16;6272530;22;45880;-86
2022/04/23 01:31:26;;;;;;;;;25.00;22.00;;;;;-146.03;100.00;60875.16;6245930;22;45402;-86
2022/04/23 01:33:52;;;;;;;;;28.75;23.75;;;;;-146.03;100.00;60875.16;6245718;22;45350;-85
2022/04/23 01:36:17;;;;;;;;;22.00;22.00;;;;;-146.03;100.00;60875.16;6245445;22;45322;-85
2022/04/23 01:38:43;;;;;;;;;23.25;21.75;;;;;-146.03;100.00;60875.16;6273280;22;45277;-86
2022/04/23 01:41:09;;;;;;;;;24.75;22.50;;;;;-146.03;100.00;60875.16;6273084;22;45231;-86
2022/04/23 01:43:34;;;;;;;;;24.25;23.25;;;;;-146.03;100.00;60875.16;6273208;22;45253;-85
2022/04/23 01:45:59;;;;;;;;;26.50;25.00;;;;;-146.03;100.00;60875.16;6273504;22;45520;-85
2022/04/23 01:48:25;;;;;;;;;25.50;25.25;;;;;-146.03;100.00;60875.16;6272399;22;59503;-85
2022/04/23 01:50:51;;;;;;;;;23.75;22.50;;;;;-146.03;100.00;60875.16;6272839;22;45266;-86
2022/04/23 01:53:18;;;;;;;;;22.50;19.75;;;;;-146.03;100.00;60875.16;6273422;22;45635;-86
2022/04/23 01:55:43;;;;;;;;;24.50;24.50;;;;;-146.03;100.00;60875.16;6273145;22;45276;-86
2022/04/23 01:58:09;;;;;;;;;26.00;25.00;;;;;-146.03;100.00;60875.16;6245033;22;47840;-86
2022/04/23 02:00:34;;;;;;;;;24.75;23.25;;;;;-146.03;100.00;60875.16;6273384;22;45254;-85
2022/04/23 02:02:59;;;;;;;;;24.25;23.00;;;;;-146.03;100.00;60875.16;6273567;22;45260;-86
2022/04/23 02:05:25;;;;;;;;;26.75;22.75;;;;;-146.03;100.00;60875.16;6273407;22;45329;-85
2022/04/23 02:07:50;;;;;;;;;27.00;23.25;;;;;-146.03;100.00;60875.16;6272926;22;45306;-85
2022/04/23 02:10:16;;;;;;;;;28.00;24.25;;;;;-146.03;100.00;60875.16;6273079;22;45411;-85
2022/04/23 02:12:42;;;;;;;;;23.25;22.50;;;;;-146.03;100.00;60875.16;6245236;22;45411;-86
2022/04/23 02:15:11;;;;;;;;;27.75;24.50;;;;;-146.03;100.00;60875.16;6273193;22;45643;-85
2022/04/23 02:17:39;;;;;;;;;24.50;23.25;;;;;-146.03;100.00;60875.16;6272979;22;45565;-85
2022/04/23 02:20:07;;;;;;;;;23.00;22.25;;;;;-146.03;100.00;60875.16;6245575;22;45380;-85
2022/04/23 02:22:32;;;;;;;;;29.25;28.00;;;;;-146.03;100.00;60875.16;6273881;22;45315;-86
2022/04/23 02:24:58;;;;;;;;;24.75;23.25;;;;;-146.03;100.00;60875.16;6272755;22;50862;-85
2022/04/23 02:27:24;;;;;;;;;22.75;20.00;;;;;-146.03;100.00;60875.16;6272395;22;45263;-86
2022/04/23 02:29:52;;;;;;;;;23.75;23.75;;;;;-146.03;100.00;60875.16;6272653;22;45349;-85
2022/04/23 02:32:18;;;;;;;;;21.75;21.50;;;;;-146.03;100.00;60875.16;6273034;22;45326;-85
2022/04/23 02:34:44;;;;;;;;;25.50;23.00;;;;;-146.03;100.00;60875.16;6273372;22;45500;-85
2022/04/23 02:37:11;;;;;;;;;21.25;21.25;;;;;-146.03;100.00;60875.16;6245049;22;47914;-86
2022/04/23 02:39:36;;;;;;;;;23.50;22.25;;;;;-146.03;100.00;60875.16;6273097;22;45239;-85
2022/04/23 02:42:02;;;;;;;;;25.00;23.00;;;;;-146.03;100.00;60875.16;6243755;22;45699;-86
2022/04/23 02:44:28;;;;;;;;;24.50;24.25;;;;;-146.03;100.00;60875.16;6273246;22;45337;-85
2022/04/23 02:46:54;;;;;;;;;23.25;23.25;;;;;-146.03;100.00;60875.16;6245090;22;46313;-85
2022/04/23 02:49:20;;;;;;;;;24.75;23.50;;;;;-146.03;100.00;60875.16;6273928;22;45320;-86
2022/04/23 02:51:45;;;;;;;;;25.00;24.25;;;;;-146.03;100.00;60875.16;6273068;22;45282;-84
2022/04/23 02:54:12;;;;;;;;;22.25;22.25;;;;;-146.03;100.00;60875.16;6272437;22;45258;-85
2022/04/23 02:56:38;;;;;;;;;24.25;24.25;;;;;-146.03;100.00;60875.16;6272597;22;45515;-84
2022/04/23 02:59:04;;;;;;;;;24.25;22.25;;;;;-146.03;100.00;60875.16;6245192;22;45852;-84
2022/04/23 03:01:30;;;;;;;;;20.50;20.50;;;;;-146.03;100.00;60875.16;6272245;22;45341;-84
2022/04/23 03:03:56;;;;;;;;;24.50;24.00;;;;;-146.03;100.00;60875.16;6273110;22;45354;-84
2022/04/23 03:06:22;;;;;;;;;23.25;22.50;;;;;-146.03;100.00;60875.16;6272740;22;45267;-84
2022/04/23 03:08:48;;;;;;;;;22.75;20.25;;;;;-146.03;100.00;60875.16;6244570;22;45332;-84
2022/04/23 03:11:14;;;;;;;;;26.00;22.25;;;;;-146.03;100.00;60875.16;6272889;22;45347;-84
2022/04/23 03:13:39;;;;;;;;;23.00;22.50;;;;;-146.03;100.00;60875.16;6273100;22;45251;-84
2022/04/23 03:16:04;;;;;;;;;21.25;21.25;;;;;-146.03;100.00;60875.16;6272553;22;46413;-84
2022/04/23 03:18:30;;;;;;;;;23.75;23.25;;;;;-146.03;100.00;60875.16;6272536;22;45441;-84
2022/04/23 03:20:55;;;;;;;;;24.75;23.50;;;;;-146.03;100.00;60875.16;6272801;22;45384;-83
2022/04/23 03:23:21;;;;;;;;;23.50;23.50;;;;;-146.03;100.00;60875.16;6244933;22;45155;-84
2022/04/23 03:25:47;;;;;;;;;22.50;20.75;;;;;-146.03;100.00;60875.16;6272631;22;45301;-84
2022/04/23 03:28:14;;;;;;;;;24.25;22.25;;;;;-146.03;100.00;60875.16;6271999;22;45246;-83
2022/04/23 03:30:41;;;;;;;;;25.75;22.00;;;;;-146.03;100.00;60875.16;6244690;22;45447;-84
2022/04/23 03:33:06;;;;;;;;;27.25;24.00;;;;;-146.03;100.00;60875.16;6244836;22;45437;-84
2022/04/23 03:35:32;;;;;;;;;20.50;19.00;;;;;-146.03;100.00;60875.16;6272538;22;45361;-84
2022/04/23 03:37:58;;;;;;;;;26.50;26.50;;;;;-146.03;100.00;60875.16;6272537;22;45325;-84
2022/04/23 03:40:24;;;;;;;;;23.75;22.50;;;;;-146.03;100.00;60875.16;6272611;22;45360;-84
2022/04/23 03:42:49;;;;;;;;;20.50;19.25;;;;;-146.03;100.00;60875.16;6272607;22;45594;-84
2022/04/23 03:45:18;;;;;;;;;21.50;21.25;;;;;-146.03;100.00;60875.16;6272361;22;45338;-84
2022/04/23 03:47:47;;;;;;;;;26.00;24.75;;;;;-146.03;100.00;60875.16;6272478;22;45333;-84
2022/04/23 03:50:14;;;;;;;;;23.50;22.75;;;;;-146.03;100.00;60875.16;6244862;22;45298;-84
2022/04/23 03:52:39;;;;;;;;;26.75;26.75;;;;;-146.03;100.00;60875.16;6272509;22;45270;-84
2022/04/23 03:55:05;;;;;;;;;27.00;22.50;;;;;-146.03;100.00;60875.16;6272102;22;45313;-85
2022/04/23 03:57:31;;;;;;;;;25.50;23.25;;;;;-146.03;100.00;60875.16;6272392;22;45243;-84
2022/04/23 03:59:57;;;;;;;;;23.50;21.25;;;;;-146.03;100.00;60875.16;6272537;22;45231;-84
2022/04/23 04:02:23;;;;;;;;;24.75;24.00;;;;;-146.03;100.00;60875.16;6272563;22;45386;-84
2022/04/23 04:04:48;;;;;;;;;26.50;25.50;;;;;-146.03;100.00;60875.16;6244638;22;46969;-84
2022/04/23 04:07:18;;;;;;;;;23.00;23.00;;;;;-146.03;100.00;60875.16;6271697;22;45413;-84
2022/04/23 04:09:44;;;;;;;;;22.00;21.75;;;;;-146.03;100.00;60875.16;6272062;22;45306;-84
2022/04/23 04:12:10;;;;;;;;;25.50;22.75;;;;;-146.03;100.00;60875.16;6272465;22;45366;-84
2022/04/23 04:14:36;;;;;;;;;26.00;22.75;;;;;-146.03;100.00;60875.16;6245940;22;47274;-84
2022/04/23 04:17:09;;;;;;;;;26.00;24.25;;;;;-146.03;100.00;60875.16;6273593;22;45500;-84
2022/04/23 04:19:35;;;;;;;;;25.50;25.00;;;;;-146.03;100.00;60875.16;6273853;22;45255;-84
2022/04/23 04:22:02;;;;;;;;;25.50;23.50;;;;;-146.03;100.00;60875.16;6273613;22;45308;-84
2022/04/23 04:24:27;;;;;;;;;24.25;23.00;;;;;-146.03;100.00;60875.16;6273512;22;45599;-84
2022/04/23 04:26:53;;;;;;;;;25.00;23.50;;;;;-146.03;100.00;60875.16;6273984;22;45316;-84
2022/04/23 04:29:19;;;;;;;;;26.00;23.25;;;;;-146.03;100.00;60875.16;6273558;22;45350;-84
2022/04/23 04:31:49;;;;;;;;;24.25;22.00;;;;;-146.03;100.00;60875.16;6246340;22;45564;-84
2022/04/23 04:34:19;;;;;;;;;23.00;22.00;;;;;-146.03;100.00;60875.16;6273730;22;45433;-84
2022/04/23 04:36:46;;;;;;;;;23.50;23.50;;;;;-146.03;100.00;60875.16;6271616;22;45792;-84
2022/04/23 04:39:12;;;;;;;;;26.00;24.50;;;;;-146.03;100.00;60875.16;6273977;22;45304;-84
2022/04/23 04:41:37;;;;;;;;;26.75;22.75;;;;;-146.03;100.00;60875.16;6242514;22;45369;-84
2022/04/23 04:44:04;;;;;;;;;26.75;23.75;;;;;-146.03;100.00;60875.16;6245610;22;45964;-84
2022/04/23 04:46:30;;;;;;;;;23.25;23.25;;;;;-146.03;100.00;60875.16;6273410;22;45249;-85
2022/04/23 04:48:55;;;;;;;;;25.00;25.00;;;;;-146.03;100.00;60875.16;6246084;22;45249;-84
2022/04/23 04:51:20;;;;;;;;;25.75;21.25;;;;;-146.03;100.00;60875.16;6272667;22;54835;-84
2022/04/23 04:53:46;;;;;;;;;24.25;23.50;;;;;-146.03;100.00;60875.16;6246180;22;45957;-83
2022/04/23 04:56:11;;;;;;;;;29.00;27.25;;;;;-146.03;100.00;60875.16;6273826;22;45259;-84
2022/04/23 04:58:36;;;;;;;;;17.25;16.75;;;;;-146.03;100.00;60875.16;6274152;22;45288;-84
2022/04/23 05:01:03;;;;;;;;;27.00;25.75;;;;;-146.03;100.00;60875.16;6273931;22;45350;-84
2022/04/23 05:03:28;;;;;;;;;22.00;21.50;;;;;-146.03;100.00;60875.16;6273812;22;45909;-84
2022/04/23 05:05:54;;;;;;;;;24.50;22.75;;;;;-146.03;100.00;60875.16;6245798;22;45333;-85
2022/04/23 05:08:19;;;;;;;;;23.00;21.75;;;;;-146.03;100.00;60875.16;6273786;22;45230;-84
2022/04/23 05:10:45;;;;;;;;;22.75;22.75;;;;;-146.03;100.00;60875.16;6274178;22;45224;-84
2022/04/23 05:13:10;;;;;;;;;23.75;21.25;;;;;-146.03;100.00;60875.16;6273281;22;46047;-84
2022/04/23 05:15:37;;;;;;;;;23.25;21.50;;;;;-146.03;100.00;60875.16;6273687;22;45370;-84
2022/04/23 05:18:02;;;;;;;;;25.50;23.25;;;;;-146.03;100.00;60875.16;6274040;22;45372;-84
2022/04/23 05:20:28;;;;;;;;;24.00;21.00;;;;;-146.03;100.00;60875.16;6273543;22;45283;-85
2022/04/23 05:22:54;;;;;;;;;23.25;21.75;;;;;-146.03;100.00;60875.16;6246029;22;47069;-85
2022/04/23 05:25:19;;;;;;;;;23.75;23.75;;;;;-146.03;100.00;60875.16;6273615;22;45259;-85
2022/04/23 05:27:44;;;;;;;;;21.50;21.25;;;;;-146.03;100.00;60875.16;6245724;22;45413;-85
2022/04/23 05:30:10;;;;;;;;;27.00;24.00;;;;;-146.03;100.00;60875.16;6273791;22;45286;-85
2022/04/23 05:32:35;;;;;;;;;25.25;25.25;;;;;-146.03;100.00;60875.16;6273640;22;46242;-85
2022/04/23 05:35:01;;;;;;;;;29.25;28.25;;;;;-146.03;100.00;60875.16;6273018;22;49429;-85
2022/04/23 05:37:26;;;;;;;;;27.25;27.25;;;;;-146.03;100.00;60875.16;6273812;22;45279;-84
2022/04/23 05:39:51;;;;;;;;;24.25;23.00;;;;;-146.03;100.00;60875.16;6273459;22;48452;-84
2022/04/23 05:42:17;;;;;;;;;22.00;21.75;;;;;-146.03;100.00;60875.16;6273443;22;45361;-84
2022/04/23 05:44:42;;;;;;;;;27.75;26.00;;;;;-146.03;100.00;60875.16;6273707;22;45321;-84
2022/04/23 05:47:07;;;;;;;;;21.50;21.25;;;;;-146.03;100.00;60875.16;6273746;22;45341;-84
2022/04/23 05:49:32;;;;;;;;;22.25;21.50;;;;;-146.03;100.00;60875.16;6245586;22;45363;-84
2022/04/23 05:51:58;;;;;;;;;26.50;25.25;;;;;-146.03;100.00;60875.16;6245706;22;50048;-84
2022/04/23 05:54:23;;;;;;;;;28.25;25.00;;;;;-146.03;100.00;60875.16;6272809;22;59071;-84
2022/04/23 05:56:48;;;;;;;;;30.00;27.50;;;;;-146.03;100.00;60875.16;6273608;22;45301;-85
2022/04/23 05:59:14;;;;;;;;;26.50;25.00;;;;;-146.03;100.00;60875.16;6273607;22;45306;-84
2022/04/23 06:01:39;;;;;;;;;30.00;27.75;;;;;-146.03;100.00;60875.16;6273110;22;45842;-84
2022/04/23 06:04:04;;;;;;;;;26.25;25.50;;;;;-146.03;100.00;60875.16;6273014;22;48632;-84
2022/04/23 06:06:30;;;;;;;;;29.25;24.00;;;;;-146.03;100.00;60875.16;6273585;22;45472;-83
2022/04/23 06:08:56;;;;;;;;;31.25;23.25;;;;;-146.03;100.00;60875.16;6245327;22;53105;-84
2022/04/23 06:11:22;;;;;;;;;24.50;22.00;;;;;-146.03;100.00;60875.16;6273577;22;45438;-85
2022/04/23 06:13:47;;;;;;;;;27.50;24.25;;;;;-146.03;100.00;60875.16;6273509;22;45308;-84
2022/04/23 06:16:12;;;;;;;;;25.75;25.00;;;;;-146.03;100.00;60875.16;6245202;22;45311;-84
2022/04/23 06:18:38;;;;;;;;;29.50;26.00;;;;;-146.03;100.00;60875.16;6273099;22;45306;-85
2022/04/23 06:21:03;;;;;;;;;27.75;27.00;;;;;-146.03;100.00;60875.16;6273424;22;46544;-84
2022/04/23 06:23:28;;;;;;;;;27.25;26.50;;;;;-146.03;100.00;60875.16;6245610;22;45820;-85
2022/04/23 06:25:54;;;;;;;;;27.50;25.75;;;;;-146.03;100.00;60875.16;6273803;22;45206;-85
2022/04/23 06:28:19;;;;;;;;;26.00;26.00;;;;;-146.03;100.00;60875.16;6273039;22;45326;-85
2022/04/23 06:30:44;;;;;;;;;26.00;24.75;;;;;-146.03;100.00;60875.16;6273204;22;45933;-85
2022/04/23 06:33:10;;;;;;;;;31.50;30.00;;;;;-146.03;100.00;60875.16;6244306;22;49288;-84
2022/04/23 06:35:35;;;;;;;;;25.00;24.25;;;;;-146.03;100.00;60875.16;6272934;22;45221;-84
2022/04/23 06:38:01;;;;;;;;;30.50;28.25;;;;;-146.03;100.00;60875.16;6273541;22;45190;-84
2022/04/23 06:40:26;;;;;;;;;31.25;29.25;;;;;-146.03;100.00;60875.16;6245841;22;45970;-84
2022/04/23 06:42:52;;;;;;;;;24.50;24.00;;;;;-146.03;100.00;60875.16;6270794;22;45619;-83
2022/04/23 06:45:17;;;;;;;;;28.50;25.75;;;;;-146.03;100.00;60875.16;6272800;22;45313;-84
2022/04/23 06:47:43;;;;;;;;;26.00;26.00;;;;;-146.03;100.00;60875.16;6272119;22;45390;-84
2022/04/23 06:50:09;;;;;;;;;24.75;24.25;;;;;-146.03;100.00;60875.16;6272610;22;45498;-85
2022/04/23 06:52:34;;;;;;;;;25.25;22.50;;;;;-146.03;100.00;60875.16;6273182;22;45354;-85
2022/04/23 06:55:00;;;;;;;;;33.25;27.00;;;;;-146.03;100.00;60875.16;6273363;22;45602;-85
2022/04/23 06:57:25;;;;;;;;;30.25;26.25;;;;;-146.03;100.00;60875.16;6273033;22;45312;-84
2022/04/23 06:59:52;;;;;;;;;26.25;24.75;;;;;-146.03;100.00;60875.16;6272857;22;45614;-84
2022/04/23 07:02:21;;;;;;;;;29.75;26.00;;;;;-146.03;100.00;60875.16;6272548;22;45400;-85
2022/04/23 07:04:46;;;;;;;;;28.00;25.25;;;;;-146.03;100.00;60875.16;6245841;22;45306;-84
2022/04/23 07:07:12;;;;;;;;;25.50;25.00;;;;;-146.03;100.00;60875.16;6273348;22;45510;-82
2022/04/23 07:09:38;;;;;;;;;26.50;25.00;;;;;-146.03;100.00;60875.16;6272943;22;46171;-84
2022/04/23 07:12:04;;;;;;;;;26.75;26.50;;;;;-146.03;100.00;60875.16;6272635;22;45369;-84
2022/04/23 07:14:29;;;;;;;;;30.50;25.25;;;;;-146.03;100.00;60875.16;6272373;22;45327;-84
2022/04/23 07:16:55;;;;;;;;;31.25;28.75;;;;;-146.03;100.00;60875.16;6243926;22;45424;-84
2022/04/23 07:19:20;;;;;;;;;24.75;24.50;;;;;-146.03;100.00;60875.16;6244490;22;47439;-84
2022/04/23 07:21:45;;;;;;;;;28.25;27.50;;;;;-146.03;100.00;60875.16;6272610;22;50285;-84
2022/04/23 07:24:12;;;;;;;;;31.25;29.00;;;;;-146.03;100.00;60875.16;6271846;22;45338;-86
2022/04/23 07:26:38;;;;;;;;;24.50;24.50;;;;;-146.03;100.00;60875.16;6244825;22;45379;-86
2022/04/23 07:29:06;;;;;;;;;24.00;22.75;;;;;-146.03;100.00;60875.16;6243426;22;47141;-84
2022/04/23 07:31:32;;;;;;;;;25.00;23.25;;;;;-146.03;100.00;60875.16;6272597;22;45350;-85
2022/04/23 07:39:26;;;;;;;;;23.00;22.25;;;;;-146.03;100.00;60875.16;6272242;22;45226;-85
2022/04/23 07:41:54;;;;;;;;;28.00;25.00;;;;;-146.03;100.00;60875.16;6272608;22;45205;-86
2022/04/23 07:44:21;;;;;;;;;28.25;27.75;;;;;-146.03;100.00;60875.16;6244062;22;45317;-86
2022/04/23 07:46:47;;;;;;;;;30.25;29.00;;;;;-146.03;100.00;60875.16;6272089;22;45417;-89
2022/04/23 07:49:13;;;;;;;;;29.50;26.25;;;;;-146.03;100.00;60875.16;6245446;22;46698;-90
2022/04/23 07:51:39;;;;;;;;;24.50;23.00;;;;;-146.03;100.00;60875.16;6273757;22;45318;-89
2022/04/23 07:54:04;;;;;;;;;28.00;25.75;;;;;-146.03;100.00;60875.16;6273507;22;45294;-90
2022/04/23 07:56:30;;;;;;;;;30.25;28.50;;;;;-146.03;100.00;60875.16;6273893;22;45366;-89
2022/04/23 07:58:55;;;;;;;;;22.50;22.50;;;;;-146.03;100.00;60875.16;6273030;22;45960;-90
2022/04/23 08:01:21;;;;;;;;;29.25;27.50;;;;;-146.03;100.00;60875.16;6273850;22;45314;-90
2022/04/23 08:03:46;;;;;;;;;28.50;26.00;;;;;-146.03;100.00;60875.16;6273780;22;45367;-90
2022/04/23 08:06:13;;;;;;;;;31.50;25.25;;;;;-146.03;100.00;60875.16;6245765;22;45578;-90
2022/04/23 08:08:39;;;;;;;;;27.50;27.50;;;;;-146.03;100.00;60875.16;6273643;22;45561;-89
2022/04/23 08:11:08;;;;;;;;;34.25;30.00;;;;;-146.03;100.00;60875.16;6245559;22;46067;-89
2022/04/23 08:13:33;;;;;;;;;28.00;24.50;;;;;-146.03;100.00;60875.16;6273461;22;45258;-89
2022/04/23 08:15:59;;;;;;;;;29.25;28.25;;;;;-146.03;100.00;60875.16;6273875;22;45228;-89
2022/04/23 08:18:27;;;;;;;;;26.75;26.75;;;;;-146.03;100.00;60875.16;6274472;22;45540;-89
2022/04/23 08:20:52;;;;;;;;;31.00;28.00;;;;;-146.03;100.00;60875.16;6249691;22;45187;-90
2022/04/23 08:23:19;;;;;;;;;30.50;27.75;;;;;-146.03;100.00;60875.16;6275120;22;45398;-89
2022/04/23 08:25:45;;;;;;;;;33.00;28.75;;;;;-146.03;100.00;60875.16;6246234;22;45251;-89
2022/04/23 08:30:55;;;;;;;;;29.00;27.75;;;;;-146.03;100.00;60875.16;6272758;22;45450;-90
2022/04/23 08:33:21;;;;;;;;;28.50;27.75;;;;;-146.03;100.00;60875.16;6245413;22;45328;-90
2022/04/23 08:35:46;;;;;;;;;32.25;30.00;;;;;-146.03;100.00;60875.16;6273357;22;45389;-89
2022/04/23 08:38:11;;;;;;;;;32.25;29.25;;;;;-146.03;100.00;60875.16;6272224;22;46027;-89
2022/04/23 08:40:41;;;;;;;;;27.00;26.50;;;;;-146.03;100.00;60875.16;6273491;22;45248;-88
2022/04/23 08:43:07;;;;;;;;;30.50;29.25;;;;;-146.03;100.00;60875.16;6245206;22;45320;-89
2022/04/23 08:45:36;;;;;;;;;32.75;29.25;;;;;-146.03;100.00;60875.16;6273446;22;45729;-90
2022/04/23 08:48:06;;;;;;;;;34.00;31.50;;;;;-146.03;100.00;60875.16;6271168;22;47476;-90
2022/04/23 08:50:36;;;;;;;;;32.50;31.00;;;;;-146.03;100.00;60875.16;6246244;22;45238;-89
2022/04/23 08:53:02;;;;;;;;;28.00;27.00;;;;;-146.03;100.00;60875.16;6245752;22;45426;-88
2022/04/23 08:55:28;;;;;;;;;28.25;25.75;;;;;-146.03;100.00;60875.16;6245753;22;45440;-88
2022/04/23 08:57:54;;;;;;;;;28.50;27.00;;;;;-146.03;100.00;60875.16;6244895;22;46487;-90
2022/04/23 09:00:20;;;;;;;;;26.75;26.25;;;;;-146.03;100.00;60875.16;6272989;22;45297;-89
2022/04/23 09:02:46;;;;;;;;;31.00;30.00;;;;;-146.03;100.00;60875.16;6245626;22;45494;-88
2022/04/23 09:05:13;;;;;;;;;33.75;29.75;;;;;-146.03;100.00;60875.16;6273011;22;45290;-89
2022/04/23 09:07:39;;;;;;;;;32.50;31.00;;;;;-146.03;100.00;60875.16;6273267;22;45682;-88
2022/04/23 09:10:07;;;;;;;;;33.00;30.50;;;;;-146.03;100.00;60875.16;6272840;22;45638;-88
2022/04/23 09:12:32;;;;;;;;;29.25;28.75;;;;;-146.03;100.00;60875.16;6243433;22;45353;-88
2022/04/23 09:23:40;;;;;;;;;32.50;29.00;;;;;-146.03;100.00;60875.16;6272751;22;45349;-89
2022/04/23 09:26:18;;;;;;;;;29.00;29.00;;;;;-146.03;100.00;60875.16;6272625;22;45415;-87
2022/04/23 09:28:46;;;;;;;;;33.50;27.25;;;;;-146.03;100.00;60875.16;6244209;22;48037;-88
2022/04/23 09:31:12;;;;;;;;;28.50;27.00;;;;;-146.03;100.00;60875.16;6270116;22;45245;-88
2022/04/23 09:33:49;;;;;;;;;29.50;29.00;;;;;-146.03;100.00;60875.16;6242481;22;45431;-88
2022/04/23 09:36:14;;;;;;;;;26.75;26.00;;;;;-146.03;100.00;60875.16;6269718;22;45333;-89
2022/04/23 09:38:40;;;;;;;;;27.25;27.25;;;;;-146.03;100.00;60875.16;6240817;22;47168;-85
2022/04/23 09:41:20;;;;;;;;;27.00;25.25;;;;;-146.03;100.00;60875.16;6270410;22;45341;-86
2022/04/23 09:43:51;;;;;;;;;27.25;27.25;;;;;-146.03;100.00;60875.16;6269940;22;45347;-86
2022/04/23 09:46:16;;;;;;;;;33.50;28.50;;;;;-146.03;100.00;60875.16;6272741;22;45309;-86
2022/04/23 09:48:43;;;;;;;;;26.50;26.50;;;;;-146.03;100.00;60875.16;6272776;22;46108;-86
2022/04/23 09:51:24;;;;;;;;;22.00;21.00;;;;;-146.03;100.00;60875.16;6271192;22;45354;-85
2022/04/23 09:53:53;;;;;;;;;27.00;25.00;;;;;-146.03;100.00;60875.16;6271162;22;45305;-86
2022/04/23 09:56:24;;;;;;;;;29.25;26.50;;;;;-146.03;100.00;60875.16;6270711;22;45498;-86
2022/04/23 09:58:50;;;;;;;;;27.00;24.50;;;;;-146.03;100.00;60875.16;6271434;22;46498;-86
2022/04/23 10:01:18;;;;;;;;;26.50;24.25;;;;;-146.03;100.00;60875.16;6269140;22;45347;-85
2022/04/23 10:03:45;;;;;;;;;25.50;24.00;;;;;-146.03;100.00;60875.16;6243660;22;45334;-86
2022/04/23 10:06:12;;;;;;;;;28.25;26.75;;;;;-146.03;100.00;60875.16;6243459;22;45592;-84
2022/04/23 10:08:42;;;;;;;;;26.50;25.00;;;;;-146.03;100.00;60875.16;6272539;22;46068;-86
2022/04/23 10:11:19;;;;;;;;;26.00;24.75;;;;;-146.03;100.00;60875.16;6271381;22;45310;-86
2022/04/23 10:13:51;;;;;;;;;24.00;24.00;;;;;-146.03;100.00;60875.16;6272843;22;45270;-86
2022/04/23 10:16:17;;;;;;;;;28.25;24.00;;;;;-146.03;100.00;60875.16;6219426;22;45575;-85
2022/04/23 10:18:43;;;;;;;;;26.25;26.25;;;;;-146.03;100.00;60875.16;6244582;22;46089;-86
2022/04/23 10:21:21;;;;;;;;;26.25;21.50;;;;;-146.03;100.00;60875.16;6244743;22;45255;-86
2022/04/23 10:24:13;;;;;;;;;23.25;22.75;;;;;-146.03;100.00;60875.16;6272830;22;45386;-85
2022/04/23 10:26:47;;;;;;;;;21.00;20.25;;;;;-146.03;100.00;60875.16;6245060;22;45391;-84
2022/04/23 10:29:17;;;;;;;;;22.25;20.75;;;;;-146.03;100.00;60875.16;6244547;22;46256;-85
2022/04/23 10:31:43;;;;;;;;;20.75;18.50;;;;;-146.03;100.00;60875.16;6272841;22;45372;-86
2022/04/23 10:34:31;;;;;;;;;22.75;22.00;;;;;-146.03;100.00;60875.16;6244348;22;45361;-86
2022/04/23 10:37:16;;;;;;;;;23.75;21.50;;;;;-146.03;100.00;60875.16;6272711;22;45650;-85
2022/04/23 10:39:51;;;;;;;;;25.75;24.25;;;;;-146.03;100.00;60875.16;6244303;22;46597;-85
2022/04/23 10:42:17;;;;;;;;;24.25;23.00;;;;;-146.03;100.00;60875.16;6273044;22;45294;-85
2022/04/23 10:44:44;;;;;;;;;24.50;22.50;;;;;-146.03;100.00;60875.16;6245586;22;45250;-85
2022/04/23 10:47:29;;;;;;;;;19.25;17.75;;;;;-146.03;100.00;60875.16;6245524;22;45440;-86
2022/04/23 10:50:22;;;;;;;;;20.50;19.75;;;;;-146.03;100.00;60875.16;6273402;22;46006;-84
2022/04/23 10:52:53;;;;;;;;;18.25;16.50;;;;;-146.03;100.00;60875.16;6245327;22;45490;-84
2022/04/23 10:55:21;;;;;;;;;15.50;15.50;;;;;-146.03;100.00;60875.16;6245021;22;45405;-84
2022/04/23 10:57:49;;;;;;;;;25.00;18.50;;;;;-146.03;100.00;60875.16;6273340;22;45313;-84
2022/04/23 11:00:17;;;;;;;;;17.75;17.25;;;;;-146.03;100.00;60875.16;6272976;22;45362;-84
2022/04/23 11:02:46;;;;;;;;;17.50;17.50;;;;;-146.03;100.00;60875.16;6273115;22;45228;-84
2022/04/23 11:13:50;;;;;;;;;16.00;16.00;;;;;-146.03;100.00;60875.16;6273058;22;45222;-84
2022/04/23 11:16:17;;;;;;;;;14.50;13.50;;;;;-146.03;100.00;60875.16;6273062;22;45327;-84
2022/04/23 11:18:50;;;;;;;;;13.25;11.00;;;;;-146.03;100.00;60875.16;6272791;22;45452;-84